Time;durP1;ratioP1;P1;durP2;ratioP2;P2;SDS_P1;SDS_P2;PMS_P1;PMS_P2;Temp;Humidity;BMP_temperature;BMP_pressure;BME280_temperature;BME280_humidity;BME280_pressure;Samples;Min_cycle;Max_cycle;Signal;HPM_P1;HPM_P2
2023/03/05 15:44:23;;;;;;;6.70;4.43;;;;;;;10.49;75.74;100054.97;10390194;27;98640;-77
2023/03/05 15:49:26;;;;;;;6.28;4.22;;;;;;;10.58;75.87;100060.69;10370356;27;97014;-76
2023/03/05 15:54:30;;;;;;;6.03;5.35;;;;;;;10.66;75.61;100063.00;10367543;28;96970;-76
2023/03/05 15:59:34;;;;;;;5.45;4.30;;;;;;;10.67;74.42;100062.94;10332960;28;96681;-75
2023/03/05 16:04:38;;;;;;;6.07;5.33;;;;;;;10.69;75.17;100055.84;10332756;28;96835;-76
2023/03/05 16:09:44;;;;;;;6.20;5.22;;;;;;;10.68;75.87;100055.91;10369600;28;96860;-76
2023/03/05 16:14:50;;;;;;;11.70;10.52;;;;;;;10.65;76.56;100061.28;10339329;28;96858;-75
2023/03/05 16:19:55;;;;;;;8.85;8.05;;;;;;;10.63;76.30;100061.34;10330537;28;96706;-76
2023/03/05 16:25:00;;;;;;;6.70;5.72;;;;;;;10.52;76.70;100065.34;10354778;28;96720;-75
2023/03/05 16:30:05;;;;;;;7.60;5.53;;;;;;;10.47;77.18;100072.59;10353244;28;96767;-76
2023/03/05 16:35:10;;;;;;;7.25;5.20;;;;;;;10.47;77.28;100056.81;10332002;28;96652;-76
2023/03/05 16:40:14;;;;;;;9.40;5.53;;;;;;;10.35;78.27;100052.06;10331231;28;96772;-76
2023/03/05 16:45:19;;;;;;;7.75;5.63;;;;;;;10.37;77.97;100056.31;10355431;28;96952;-75
2023/03/05 16:50:22;;;;;;;5.85;4.68;;;;;;;10.40;78.37;100050.97;10341956;28;97051;-75
2023/03/05 16:55:25;;;;;;;7.38;5.32;;;;;;;10.33;78.65;100044.25;10346136;28;97085;-75
2023/03/05 17:00:30;;;;;;;15.38;13.70;;;;;;;10.33;78.68;100048.63;10344761;28;96680;-75
2023/03/05 17:05:35;;;;;;;9.65;8.50;;;;;;;10.28;79.20;100048.84;10342444;28;96920;-75
2023/03/05 17:10:39;;;;;;;6.47;5.38;;;;;;;10.29;78.36;100055.81;10343786;28;96580;-75
2023/03/05 17:15:43;;;;;;;20.55;13.18;;;;;;;10.27;79.01;100058.50;10371864;28;96788;-75
2023/03/05 17:20:46;;;;;;;11.80;9.73;;;;;;;10.33;78.15;100048.63;10364761;28;96760;-75
2023/03/05 17:25:50;;;;;;;7.38;5.15;;;;;;;10.30;78.06;100051.41;10313824;28;96602;-75
2023/03/05 17:30:58;;;;;;;8.13;5.60;;;;;;;10.33;78.35;100043.38;10302493;28;96772;-75
2023/03/05 17:36:02;;;;;;;6.78;4.68;;;;;;;10.27;78.71;100050.63;10305268;28;96781;-75
2023/03/05 17:41:05;;;;;;;7.45;5.32;;;;;;;10.28;78.78;100059.38;10342618;28;96655;-75
2023/03/05 17:46:11;;;;;;;16.42;13.38;;;;;;;10.27;78.88;100061.13;10343711;28;97083;-76
2023/03/05 17:51:16;;;;;;;6.40;5.00;;;;;;;10.20;79.05;100054.41;10341596;28;96670;-75
2023/03/05 17:56:20;;;;;;;7.60;6.43;;;;;;;10.21;78.97;100066.63;10342308;28;96659;-76
2023/03/05 18:01:27;;;;;;;6.60;5.45;;;;;;;10.13;79.32;100049.44;10342759;28;96571;-76
2023/03/05 18:06:31;;;;;;;10.15;8.48;;;;;;;10.07;80.04;100073.38;10341794;28;97356;-76
2023/03/05 18:11:34;;;;;;;9.07;7.30;;;;;;;10.14;79.48;100077.47;10341321;28;96778;-75
2023/03/05 18:16:39;;;;;;;6.75;4.93;;;;;;;10.12;79.76;100084.56;10342624;28;96675;-76
2023/03/05 18:21:42;;;;;;;11.07;9.93;;;;;;;10.12;79.63;100092.44;10341722;28;96798;-75
2023/03/05 18:26:46;;;;;;;7.40;5.50;;;;;;;10.07;80.04;100083.91;10305257;28;96908;-76
2023/03/05 18:31:50;;;;;;;7.03;5.57;;;;;;;10.00;80.62;100078.00;10341798;28;96721;-76
2023/03/05 18:36:54;;;;;;;7.30;5.87;;;;;;;9.97;81.15;100100.94;10341762;28;96627;-75
2023/03/05 18:41:57;;;;;;;8.05;6.25;;;;;;;10.02;81.15;100096.38;10340614;28;96746;-76
2023/03/05 18:47:01;;;;;;;7.10;6.18;;;;;;;10.03;80.70;100091.06;10313185;28;96844;-76
2023/03/05 18:52:05;;;;;;;7.87;6.47;;;;;;;10.07;80.95;100091.78;10299939;28;96689;-75
2023/03/05 18:57:08;;;;;;;9.32;6.38;;;;;;;9.99;80.88;100091.22;10331198;28;97040;-75
2023/03/05 19:02:15;;;;;;;7.47;6.15;;;;;;;10.00;80.86;100092.94;10340053;28;96705;-75
2023/03/05 19:07:18;;;;;;;7.85;6.03;;;;;;;10.04;80.50;100100.63;10340674;28;96865;-75
2023/03/05 19:12:23;;;;;;;7.70;6.32;;;;;;;10.06;80.64;100098.81;10340219;28;96867;-75
2023/03/05 19:17:29;;;;;;;6.10;5.50;;;;;;;10.07;80.28;100116.28;10340314;28;96710;-75
2023/03/05 19:22:32;;;;;;;8.13;5.60;;;;;;;10.12;80.17;100105.59;10336517;28;96714;-75
2023/03/05 19:27:36;;;;;;;8.10;6.13;;;;;;;10.11;80.58;100106.50;10299303;28;96637;-75
2023/03/05 19:32:40;;;;;;;9.40;6.53;;;;;;;10.09;81.07;100108.34;10299360;28;96921;-75
2023/03/05 19:37:44;;;;;;;7.32;6.22;;;;;;;10.14;80.47;100112.50;10299247;28;96892;-75
2023/03/05 19:42:48;;;;;;;9.10;5.95;;;;;;;10.20;80.73;100114.88;10298331;28;96700;-76
2023/03/05 19:47:52;;;;;;;8.00;6.05;;;;;;;10.06;81.61;100111.09;10298550;28;96649;-76
2023/03/05 19:52:55;;;;;;;7.37;6.53;;;;;;;10.15;80.36;100110.72;10298930;28;97090;-75
2023/03/05 19:57:58;;;;;;;9.45;7.63;;;;;;;10.12;81.02;100109.06;10336042;28;96691;-75
2023/03/05 20:03:03;;;;;;;9.15;6.93;;;;;;;10.10;81.51;100097.78;10339452;28;96649;-76
2023/03/05 20:08:06;;;;;;;7.07;6.38;;;;;;;10.06;81.22;100098.81;10339201;28;96734;-76
2023/03/05 20:13:09;;;;;;;8.65;6.68;;;;;;;10.03;81.10;100116.47;10301505;28;96872;-76
2023/03/05 20:18:14;;;;;;;8.50;6.05;;;;;;;9.97;81.42;100103.56;10298108;28;96767;-75
2023/03/05 20:23:17;;;;;;;8.43;6.47;;;;;;;10.07;81.13;100099.66;10298107;28;96885;-76
2023/03/05 20:28:24;;;;;;;8.07;6.13;;;;;;;10.04;81.57;100099.78;10315193;28;96829;-75
2023/03/05 20:33:29;;;;;;;7.28;5.78;;;;;;;9.99;81.81;100114.88;10304450;28;96667;-76
2023/03/05 20:38:32;;;;;;;7.22;6.53;;;;;;;9.93;81.99;100107.25;10304431;28;96499;-75
2023/03/05 20:43:39;;;;;;;7.68;6.25;;;;;;;10.05;81.32;100120.78;10304421;28;96906;-76
2023/03/05 20:48:44;;;;;;;9.25;7.10;;;;;;;9.96;81.76;100091.34;10304089;28;96747;-75
2023/03/05 20:53:48;;;;;;;9.63;7.05;;;;;;;10.01;82.21;100097.28;10303907;28;97030;-75
2023/03/05 20:58:51;;;;;;;9.98;7.32;;;;;;;9.99;81.62;100099.97;10303393;28;96679;-76
2023/03/05 21:03:57;;;;;;;8.18;7.05;;;;;;;9.93;82.38;100105.47;10338158;28;97131;-76
2023/03/05 21:09:00;;;;;;;8.75;7.13;;;;;;;9.92;82.38;100114.25;10344161;28;96652;-76
2023/03/05 21:14:04;;;;;;;7.68;6.47;;;;;;;10.02;81.59;100125.28;10344051;28;96893;-75
2023/03/05 21:19:08;;;;;;;7.53;6.50;;;;;;;10.02;82.17;100110.34;10343369;28;96717;-76
2023/03/05 21:24:11;;;;;;;7.67;6.50;;;;;;;9.97;82.02;100120.19;10341313;28;97213;-75
2023/03/05 21:29:14;;;;;;;7.10;6.05;;;;;;;10.01;82.19;100116.53;10302477;28;96525;-75
2023/03/05 21:34:19;;;;;;;8.18;6.40;;;;;;;10.03;81.84;100122.59;10303036;28;96785;-75
2023/03/05 21:39:22;;;;;;;9.50;6.87;;;;;;;10.06;82.34;100114.59;10301994;28;96941;-76
2023/03/05 21:44:25;;;;;;;8.20;6.43;;;;;;;10.12;82.29;100114.31;10319787;28;96698;-75
2023/03/05 21:49:30;;;;;;;7.22;6.25;;;;;;;10.15;81.92;100123.88;10343274;28;96639;-76
2023/03/05 21:54:33;;;;;;;6.93;5.88;;;;;;;10.19;81.86;100113.16;10310748;28;97158;-75
2023/03/05 21:59:40;;;;;;;4.88;4.38;;;;;;;10.16;81.04;100115.06;10338954;28;97338;-75
2023/03/05 22:04:44;;;;;;;5.90;5.18;;;;;;;10.19;81.54;100114.97;10342797;28;96573;-75
2023/03/05 22:09:47;;;;;;;5.80;5.15;;;;;;;10.17;81.37;100119.41;10341717;28;96709;-75
2023/03/05 22:14:51;;;;;;;6.28;4.78;;;;;;;10.05;81.33;100106.75;10342656;28;96638;-75
2023/03/05 22:19:55;;;;;;;6.93;5.55;;;;;;;10.06;81.17;100101.44;10342291;28;96535;-75
2023/03/05 22:24:58;;;;;;;6.73;5.77;;;;;;;10.02;81.42;100104.25;10333201;28;96851;-75
2023/03/05 22:30:02;;;;;;;6.68;5.97;;;;;;;10.06;81.53;100103.19;10300897;28;96972;-75
2023/03/05 22:35:11;;;;;;;6.35;5.40;;;;;;;10.04;81.65;100112.91;10300317;28;96728;-75
2023/03/05 22:40:16;;;;;;;6.90;5.60;;;;;;;10.12;81.48;100105.59;10299929;28;96622;-75
2023/03/05 22:45:19;;;;;;;6.65;5.20;;;;;;;10.15;80.98;100100.22;10300907;28;96716;-75
2023/03/05 22:50:24;;;;;;;6.72;4.82;;;;;;;10.16;81.28;100101.91;10299761;28;96575;-75
2023/03/05 22:55:27;;;;;;;7.40;5.87;;;;;;;10.19;80.79;100093.91;10303291;28;96737;-75
2023/03/05 23:00:30;;;;;;;8.10;5.93;;;;;;;10.18;80.97;100095.69;10325533;28;96789;-75
2023/03/05 23:05:37;;;;;;;9.70;6.60;;;;;;;10.16;81.26;100100.16;10299687;28;96536;-75
2023/03/05 23:10:40;;;;;;;8.32;6.30;;;;;;;10.20;80.70;100106.13;10299469;28;96874;-75
2023/03/05 23:15:44;;;;;;;7.25;5.72;;;;;;;10.31;80.57;100106.56;10300343;28;96937;-75
2023/03/05 23:20:48;;;;;;;9.35;6.93;;;;;;;10.21;80.63;100105.22;10299472;28;97167;-75
2023/03/05 23:25:52;;;;;;;7.00;6.30;;;;;;;10.20;80.62;100093.00;10298826;28;96820;-75
2023/03/05 23:30:57;;;;;;;7.45;6.70;;;;;;;10.24;80.99;100099.84;10299033;28;96812;-75
2023/03/05 23:36:02;;;;;;;8.77;6.95;;;;;;;10.18;81.04;100095.69;10299425;28;96672;-75
2023/03/05 23:41:08;;;;;;;10.52;8.27;;;;;;;10.21;80.98;100098.19;10298334;28;97251;-75
2023/03/05 23:46:12;;;;;;;9.82;7.93;;;;;;;10.17;81.08;100086.09;10298272;28;96744;-75
2023/03/05 23:51:17;;;;;;;10.38;8.27;;;;;;;10.09;81.29;100085.53;10298769;28;96581;-75
2023/03/05 23:56:21;;;;;;;10.07;7.93;;;;;;;10.13;81.12;100083.63;10298520;28;96704;-75
